Airfield :
LOGIN :

Register | Disclaimer

   EN    FR    IT 

 










Legend :    VFR   Marginal VFR   IFR   Intensive IFR   Very Intensive IFR
Visi :
Ceiling :
>= 8 km
>= 3000ft
5 to 8 km
1000 to 3000 ft
1500m to 5 km
500 to 1000 ft
800 to 1500m
200 to 500 ft
< 800m
< 200 ft
Symbols :   Thunderstorms  Fog  Heavy snow  Heavy precipitations  Wind > 20 kt
SIGMETs :     Misc.  Thunderstorms  Icing  Turbulence  Mountain Waves  Volcanic Ashes






- Airport Elevation : 7 ft
- IATA code : VCE


LIPZ - Marco Polo Int. Venezia

CURRENT METAR :
  • 230920Z 05007KT 020V080 9999 FEW040 16/13 Q1023 NOSIG

EXPIRED METARs :
  • 230850Z 03006KT 9999 SCT035 14/14 Q1023 NOSIG
  • 230820Z 03005KT 9000 BKN033 14/13 Q1023 NOSIG
  • 230750Z 01005KT 6000 SCT034 13/13 Q1022 NOSIG
  • 230720Z 01005KT 4000 BR FEW028 12/12 Q1022 BECMG 6000
  • 230650Z 34004KT 0800 R04R/P1500N BCFG FEW010 12/12 Q1021 BECMG 1200 BR

TAF TAF LIPZ
Valid from the 23 at 06:00 until the 24 at 12:00 UTC


230500Z 2306/2412 VRB05KT 0200 FG FEW030
BECMG 2307/2309 01010KT 6000
BECMG 2310/2312 08012KT
BECMG 2318/2320 02008KT
BECMG 2410/2412 08012KT



MET'MAP, your aeronautical weather chart ! - Copyright ORBIFLY December 2007 - Disclaimer

ORBIFLY MET'MAP TEAM :

Programming & Development : Alexandra Zaïnal
Concept & original design : Baudouin d'Aumeries
Assistance for programming : Marc-Olivier Méhu
Technical & hardware support : Manuel Goepfert

Contact : metmap@orbifly.com




SOURCES & CREDITS :

   NOAA